createdAt,value
2022-08-24T00:00:18.904Z,98884.88
2022-08-24T00:02:45.766Z,98895.81
2022-08-24T00:05:14.718Z,98899.59
2022-08-24T00:07:42.176Z,98871.84
2022-08-24T00:10:13.522Z,98893.97
2022-08-24T00:12:43.301Z,98874.22
2022-08-24T00:15:12.478Z,98891.00
2022-08-24T00:17:39.707Z,98885.66
2022-08-24T00:20:09.625Z,98881.44
2022-08-24T00:22:37.152Z,98872.44
2022-08-24T00:25:06.113Z,98874.66
2022-08-24T00:27:32.598Z,98873.19
2022-08-24T00:30:00.181Z,98865.53
2022-08-24T00:32:26.696Z,98860.69
2022-08-24T00:34:58.549Z,98855.63
2022-08-24T00:37:28.680Z,98841.41
2022-08-24T00:39:55.997Z,98845.78
2022-08-24T00:42:22.701Z,98844.22
2022-08-24T00:44:49.129Z,98841.91
2022-08-24T00:47:23.950Z,98851.56
2022-08-24T00:49:59.114Z,98839.59
2022-08-24T00:52:38.981Z,98849.00
2022-08-24T00:55:12.593Z,98846.84
2022-08-24T00:57:41.905Z,98837.72
2022-08-24T01:00:14.881Z,98853.59
2022-08-24T01:02:44.949Z,98850.72
2022-08-24T01:05:13.096Z,98851.50
2022-08-24T01:07:40.200Z,98837.03
2022-08-24T01:10:19.573Z,98827.63
2022-08-24T01:12:56.160Z,98824.22
2022-08-24T01:15:31.803Z,98816.75
2022-08-24T01:18:18.248Z,98802.09
2022-08-24T01:20:49.397Z,98796.41
2022-08-24T01:23:40.757Z,98800.06
2022-08-24T01:26:10.476Z,98782.50
2022-08-24T01:28:40.526Z,98771.94
2022-08-24T01:31:08.635Z,98777.50
2022-08-24T01:33:36.054Z,98777.84
2022-08-24T01:36:18.640Z,98766.56
2022-08-24T01:38:47.067Z,98765.88
2022-08-24T01:41:14.155Z,98759.50
2022-08-24T01:43:41.122Z,98760.88
2022-08-24T01:46:08.403Z,98759.38
2022-08-24T01:48:34.915Z,98760.53
2022-08-24T01:51:01.658Z,98765.63
2022-08-24T01:53:28.146Z,98746.81
2022-08-24T01:55:54.799Z,98759.22
2022-08-24T01:58:21.332Z,98773.88
2022-08-24T02:00:48.061Z,98776.94
2022-08-24T02:03:14.556Z,98774.97
2022-08-24T02:05:42.606Z,98743.41
2022-08-24T02:08:09.422Z,98748.69
2022-08-24T02:10:35.942Z,98746.38
2022-08-24T02:13:02.731Z,98747.56
2022-08-24T02:15:40.490Z,98737.81
2022-08-24T02:18:15.201Z,98723.16
2022-08-24T02:20:45.368Z,98714.88
2022-08-24T02:23:12.139Z,98713.88
2022-08-24T02:25:38.555Z,98708.56
2022-08-24T02:28:05.967Z,98703.56
2022-08-24T02:30:37.421Z,98708.22
2022-08-24T02:33:04.010Z,98707.59
2022-08-24T02:35:30.956Z,98709.28
2022-08-24T02:37:58.005Z,98709.63
2022-08-24T02:40:25.272Z,98698.34
2022-08-24T02:42:55.938Z,98691.34
2022-08-24T02:45:22.805Z,98682.84
2022-08-24T02:47:51.100Z,98689.69
2022-08-24T02:50:18.868Z,98687.56
2022-08-24T02:52:45.747Z,98663.44
2022-08-24T02:55:15.438Z,98671.75
2022-08-24T02:57:48.009Z,98659.06
2022-08-24T03:00:17.682Z,98672.97
2022-08-24T03:02:44.139Z,98684.03
2022-08-24T03:05:15.949Z,98677.41
2022-08-24T03:07:43.342Z,98676.75
2022-08-24T03:10:15.238Z,98678.16
2022-08-24T03:12:41.708Z,98659.13
2022-08-24T03:15:10.710Z,98656.16
2022-08-24T03:17:40.205Z,98654.53
2022-08-24T03:20:14.025Z,98644.19
2022-08-24T03:22:41.667Z,98642.22
2022-08-24T03:25:11.095Z,98646.81
2022-08-24T03:27:37.511Z,98647.69
2022-08-24T03:30:07.325Z,98642.59
2022-08-24T03:32:34.079Z,98627.59
2022-08-24T03:35:00.744Z,98628.56
2022-08-24T03:37:27.196Z,98629.59
2022-08-24T03:39:53.633Z,98616.97
2022-08-24T03:42:20.689Z,98604.66
2022-08-24T03:44:48.009Z,98619.94
2022-08-24T03:47:14.464Z,98619.28
2022-08-24T03:49:41.234Z,98624.31
2022-08-24T03:52:08.252Z,98623.47
2022-08-24T03:54:35.013Z,98623.78
2022-08-24T03:57:01.730Z,98622.59
2022-08-24T03:59:28.192Z,98626.44
2022-08-24T04:01:57.622Z,98632.41
2022-08-24T04:04:24.882Z,98635.94
2022-08-24T04:06:51.517Z,98638.28
2022-08-24T04:09:19.044Z,98626.66
2022-08-24T04:11:46.312Z,98620.50
2022-08-24T04:14:26.526Z,98620.81
2022-08-24T04:16:57.318Z,98623.34
2022-08-24T04:19:24.192Z,98615.09
2022-08-24T04:21:51.331Z,98614.72
2022-08-24T04:24:18.115Z,98597.50
2022-08-24T04:26:46.106Z,98592.19
2022-08-24T04:29:15.079Z,98592.19
2022-08-24T04:31:42.777Z,98583.19
2022-08-24T04:34:10.610Z,98567.91
2022-08-24T04:36:37.272Z,98595.31
2022-08-24T04:39:04.436Z,98592.16
2022-08-24T04:41:31.873Z,98588.16
2022-08-24T04:43:59.545Z,98591.44
2022-08-24T04:46:27.185Z,98599.56
2022-08-24T04:48:54.181Z,98607.13
2022-08-24T04:51:21.495Z,98603.66
2022-08-24T04:53:49.148Z,98619.56
2022-08-24T04:56:23.454Z,98626.84
2022-08-24T04:58:51.483Z,98619.97
2022-08-24T05:01:21.698Z,98636.56
2022-08-24T05:03:50.197Z,98648.25
2022-08-24T05:06:21.371Z,98642.25
2022-08-24T05:08:48.578Z,98636.47
2022-08-24T05:11:17.560Z,98679.53
2022-08-24T05:13:44.255Z,98683.91
2022-08-24T05:16:14.133Z,98683.94
2022-08-24T05:18:41.621Z,98679.00
2022-08-24T05:21:10.697Z,98686.44
2022-08-24T05:23:38.235Z,98665.66
2022-08-24T05:26:06.796Z,98666.81
2022-08-24T05:28:35.463Z,98664.81
2022-08-24T05:31:19.888Z,98672.00
2022-08-24T05:33:48.162Z,98698.88
2022-08-24T05:36:39.348Z,98703.53
2022-08-24T05:39:11.459Z,98722.91
2022-08-24T05:41:43.871Z,98711.31
2022-08-24T05:44:12.667Z,98721.88
2022-08-24T05:46:42.291Z,98729.25
2022-08-24T05:49:09.757Z,98752.47
2022-08-24T05:51:36.674Z,98766.84
2022-08-24T05:54:05.141Z,98783.44
2022-08-24T05:56:32.231Z,98787.38
2022-08-24T05:59:00.737Z,98800.88
2022-08-24T06:01:28.630Z,98819.31
2022-08-24T06:03:56.056Z,98830.31
2022-08-24T06:06:23.915Z,98858.75
2022-08-24T06:08:55.430Z,98880.59
2022-08-24T06:11:31.311Z,98903.41
2022-08-24T06:14:01.309Z,98942.94
2022-08-24T06:16:28.625Z,99000.13
2022-08-24T06:18:55.497Z,99014.91
2022-08-24T06:21:25.874Z,99019.38
2022-08-24T06:23:55.751Z,99063.31
2022-08-24T06:26:40.734Z,99110.81
2022-08-24T06:29:08.522Z,99145.69
2022-08-24T06:31:40.052Z,99151.13
2022-08-24T06:34:09.380Z,99168.72
2022-08-24T06:36:35.769Z,99157.72
2022-08-24T06:39:02.213Z,99149.09
2022-08-24T06:41:30.550Z,99169.75
2022-08-24T06:43:57.410Z,99174.97
2022-08-24T06:46:26.479Z,99168.81
2022-08-24T06:48:55.064Z,99170.16
2022-08-24T06:51:25.573Z,99175.34
2022-08-24T06:53:54.907Z,99184.47
2022-08-24T06:56:21.581Z,99197.72
2022-08-24T06:58:49.005Z,99212.84
2022-08-24T07:01:19.102Z,99219.81
2022-08-24T07:03:46.289Z,99233.66
2022-08-24T07:06:14.702Z,99234.38
2022-08-24T07:08:42.896Z,99229.41
2022-08-24T07:11:11.380Z,99232.31
2022-08-24T07:13:37.918Z,99236.72
2022-08-24T07:16:04.900Z,99234.31
2022-08-24T07:18:32.121Z,99244.34
2022-08-24T07:21:02.495Z,99269.06
2022-08-24T07:23:42.334Z,99283.06
2022-08-24T07:26:20.818Z,99293.16
2022-08-24T07:29:06.676Z,99291.84
2022-08-24T07:31:36.828Z,99304.00
2022-08-24T07:34:05.587Z,99319.63
2022-08-24T07:36:32.942Z,99335.09
2022-08-24T07:39:00.004Z,99339.63
2022-08-24T07:42:10.994Z,99360.50
2022-08-24T07:44:15.474Z,99359.69
2022-08-24T07:46:43.863Z,99362.28
2022-08-24T07:49:29.232Z,99362.03
2022-08-24T07:51:59.437Z,99362.44
2022-08-24T07:54:27.542Z,99369.22
2022-08-24T07:56:54.353Z,99367.59
2022-08-24T07:59:21.196Z,99370.22
2022-08-24T08:01:47.686Z,99368.19
2022-08-24T08:04:15.370Z,99349.97
2022-08-24T08:06:42.746Z,99384.63
2022-08-24T08:09:09.241Z,99373.28
2022-08-24T08:11:36.086Z,99382.88
2022-08-24T08:14:03.105Z,99386.06
2022-08-24T08:16:31.179Z,99395.03
2022-08-24T08:19:12.786Z,99376.84
2022-08-24T08:22:08.316Z,99395.47
2022-08-24T08:24:37.688Z,99387.63
2022-08-24T08:27:04.708Z,99389.94
2022-08-24T08:29:34.248Z,99381.06
2022-08-24T08:32:03.401Z,99381.22
2022-08-24T08:34:31.464Z,99388.44
2022-08-24T08:36:59.239Z,99394.78
2022-08-24T08:39:27.388Z,99381.47
2022-08-24T08:42:22.576Z,99387.31
2022-08-24T08:45:20.152Z,99403.94
2022-08-24T08:51:09.907Z,99390.94
2022-08-24T08:53:57.409Z,99394.91
2022-08-24T08:56:35.944Z,99383.81
2022-08-24T08:59:24.261Z,99389.53
2022-08-24T09:02:31.931Z,99397.16
2022-08-24T09:05:17.727Z,99394.34
2022-08-24T09:08:20.126Z,99393.19
2022-08-24T09:11:20.655Z,99397.63
2022-08-24T09:14:01.336Z,99394.59
2022-08-24T09:16:59.093Z,99389.09
2022-08-24T09:19:40.852Z,99399.47
2022-08-24T09:22:20.362Z,99398.41
2022-08-24T09:25:05.914Z,99383.28
2022-08-24T09:28:12.211Z,99386.38
2022-08-24T09:31:22.078Z,99389.66
2022-08-24T09:34:24.644Z,99384.22
2022-08-24T09:37:01.479Z,99382.00
2022-08-24T09:39:35.255Z,99381.88
2022-08-24T09:42:19.815Z,99384.53
2022-08-24T09:45:17.943Z,99364.34
2022-08-24T09:48:06.335Z,99381.16
2022-08-24T09:51:00.343Z,99380.59
2022-08-24T09:53:50.347Z,99377.06
2022-08-24T09:56:26.110Z,99380.31
2022-08-24T09:58:59.053Z,99375.78
2022-08-24T10:01:43.598Z,99373.75
2022-08-24T10:04:32.098Z,99370.00
2022-08-24T10:07:12.480Z,99366.63
2022-08-24T10:10:00.889Z,99361.56
2022-08-24T10:12:56.609Z,99370.06
2022-08-24T10:15:27.291Z,99363.88
2022-08-24T10:18:13.338Z,99368.13
2022-08-24T10:21:10.938Z,99351.25
2022-08-24T10:23:55.231Z,99365.25
2022-08-24T10:26:57.555Z,99360.34
2022-08-24T10:29:40.175Z,99358.97
2022-08-24T10:32:26.962Z,99350.31
2022-08-24T10:35:04.712Z,99346.41
2022-08-24T10:38:34.982Z,99336.13
2022-08-24T10:41:23.786Z,99349.63
2022-08-24T10:43:55.915Z,99343.84
2022-08-24T10:46:37.872Z,99311.38
2022-08-24T10:49:19.154Z,99322.28
2022-08-24T10:52:11.331Z,99330.78
2022-08-24T10:54:38.328Z,99337.56
2022-08-24T10:57:17.480Z,99330.50
2022-08-24T11:00:05.495Z,99327.81
2022-08-24T11:02:39.196Z,99333.81
2022-08-24T11:05:08.479Z,99335.41
2022-08-24T11:07:36.696Z,99331.31
2022-08-24T11:10:10.914Z,99332.69
2022-08-24T11:12:43.625Z,99322.38
2022-08-24T11:15:20.651Z,99325.56
2022-08-24T11:18:02.135Z,99333.13
2022-08-24T11:20:43.006Z,99327.38
2022-08-24T11:23:19.656Z,99308.19
2022-08-24T11:26:13.638Z,99309.94
2022-08-24T11:29:01.209Z,99322.84
2022-08-24T11:31:35.602Z,99316.56
2022-08-24T11:34:09.589Z,99306.16
2022-08-24T11:36:38.412Z,99325.94
2022-08-24T11:39:30.997Z,99315.59
2022-08-24T11:42:32.809Z,99322.09
2022-08-24T11:45:12.941Z,99309.25
2022-08-24T11:48:00.326Z,99326.59
2022-08-24T11:50:36.111Z,99310.66
2022-08-24T11:53:30.038Z,99329.88
2022-08-24T11:56:15.363Z,99326.28
2022-08-24T11:59:11.680Z,99317.22
2022-08-24T12:01:59.752Z,99318.19
2022-08-24T12:04:46.413Z,99316.00
2022-08-24T12:07:26.506Z,99308.09
2022-08-24T12:10:10.877Z,99307.59
2022-08-24T12:12:49.052Z,99310.38
2022-08-24T12:15:17.881Z,99321.03
2022-08-24T12:18:05.486Z,99305.78
2022-08-24T12:20:43.950Z,99303.00
2022-08-24T12:23:45.662Z,99305.00
2022-08-24T12:26:37.212Z,99297.59
2022-08-24T12:29:18.635Z,99291.78
2022-08-24T12:32:05.382Z,99296.06
2022-08-24T12:34:59.130Z,99289.22
2022-08-24T12:37:57.677Z,99302.16
2022-08-24T12:40:33.950Z,99299.72
2022-08-24T12:43:05.849Z,99298.56
2022-08-24T12:45:34.375Z,99287.06
2022-08-24T12:48:21.004Z,99301.03
2022-08-24T12:51:15.087Z,99295.31
2022-08-24T12:53:55.903Z,99283.44
2022-08-24T12:56:53.929Z,99276.81
2022-08-24T12:59:29.446Z,99280.09
2022-08-24T13:01:59.042Z,99286.31
2022-08-24T13:04:28.191Z,99291.78
2022-08-24T13:07:26.263Z,99269.00
2022-08-24T13:09:53.203Z,99277.53
2022-08-24T13:12:38.629Z,99272.25
2022-08-24T13:15:23.486Z,99286.66
2022-08-24T13:17:51.520Z,99280.78
2022-08-24T13:20:36.677Z,99277.13
2022-08-24T13:23:16.072Z,99282.56
2022-08-24T13:25:58.891Z,99280.63
2022-08-24T13:28:26.230Z,99286.34
2022-08-24T13:31:23.125Z,99278.47
2022-08-24T13:34:09.038Z,99282.78
2022-08-24T13:36:44.733Z,99255.31
2022-08-24T13:39:49.797Z,99274.06
2022-08-24T13:42:19.723Z,99275.72
2022-08-24T13:45:07.127Z,99281.72
2022-08-24T13:47:49.809Z,99264.25
2022-08-24T13:50:38.863Z,99272.97
2022-08-24T13:53:33.745Z,99269.66
2022-08-24T13:56:33.123Z,99272.44
2022-08-24T13:59:31.004Z,99279.19
2022-08-24T14:02:20.677Z,99263.78
2022-08-24T14:04:55.922Z,99269.94
2022-08-24T14:07:31.006Z,99268.06
2022-08-24T14:10:08.686Z,99268.91
2022-08-24T14:12:50.047Z,99275.16
2022-08-24T14:15:47.151Z,99271.03
2022-08-24T14:18:36.534Z,99259.44
2022-08-24T14:21:19.039Z,99262.59
2022-08-24T14:24:04.014Z,99272.19
2022-08-24T14:26:40.637Z,99272.78
2022-08-24T14:29:29.056Z,99249.13
2022-08-24T14:32:00.039Z,99264.22
2022-08-24T14:35:19.891Z,99244.50
2022-08-24T14:38:03.944Z,99230.63
2022-08-24T14:40:37.026Z,99253.03
2022-08-24T14:43:28.509Z,99245.94
2022-08-24T14:46:33.487Z,99252.72
2022-08-24T14:49:09.341Z,99247.31
2022-08-24T14:51:53.689Z,99243.34
2022-08-24T14:54:33.173Z,99250.50
2022-08-24T14:57:32.034Z,99248.38
2022-08-24T15:00:20.673Z,99241.88
2022-08-24T15:03:16.371Z,99246.94
2022-08-24T15:06:09.674Z,99248.84
2022-08-24T15:08:43.245Z,99246.44
2022-08-24T15:11:18.473Z,99243.56
2022-08-24T15:13:57.587Z,99237.19
2022-08-24T15:16:43.673Z,99246.03
2022-08-24T15:19:31.837Z,99234.78
2022-08-24T15:22:14.783Z,99226.97
2022-08-24T15:24:52.413Z,99233.59
2022-08-24T15:27:25.277Z,99228.38
2022-08-24T15:29:55.216Z,99227.63
2022-08-24T15:32:28.581Z,99239.66
2022-08-24T15:34:58.371Z,99224.84
2022-08-24T15:37:34.636Z,99227.06
2022-08-24T15:40:04.397Z,99228.38
2022-08-24T15:42:35.597Z,99224.44
2022-08-24T15:45:04.195Z,99230.06
2022-08-24T15:47:36.287Z,99223.13
2022-08-24T15:50:07.359Z,99241.25
2022-08-24T15:52:52.881Z,99243.53
2022-08-24T15:55:34.208Z,99229.00
2022-08-24T15:58:26.922Z,99231.06
2022-08-24T16:01:18.437Z,99234.50
2022-08-24T16:03:59.607Z,99232.56
2022-08-24T16:06:26.116Z,99234.53
2022-08-24T16:09:05.220Z,99235.34
2022-08-24T16:11:39.086Z,99234.22
2022-08-24T16:14:28.492Z,99229.91
2022-08-24T16:16:57.550Z,99232.44
2022-08-24T16:19:29.382Z,99228.81
2022-08-24T16:22:06.596Z,99217.03
2022-08-24T16:24:40.333Z,99221.47
2022-08-24T16:27:16.878Z,99220.97
2022-08-24T16:29:53.471Z,99218.16
2022-08-24T16:32:32.068Z,99221.41
2022-08-24T16:35:14.455Z,99236.59
2022-08-24T16:37:42.985Z,99226.41
2022-08-24T16:40:10.858Z,99224.31
2022-08-24T16:42:39.771Z,99229.19
2022-08-24T16:45:12.085Z,99232.84
2022-08-24T16:47:38.717Z,99222.13
2022-08-24T16:50:07.267Z,99225.56
2022-08-24T16:52:33.721Z,99215.72
2022-08-24T16:55:01.473Z,99226.13
2022-08-24T16:57:30.977Z,99221.00
2022-08-24T16:59:57.624Z,99228.09
2022-08-24T17:02:25.801Z,99234.19
2022-08-24T17:04:53.298Z,99229.47
2022-08-24T17:07:26.251Z,99227.91
2022-08-24T17:09:54.833Z,99232.19
2022-08-24T17:12:22.592Z,99228.22
2022-08-24T17:14:51.176Z,99230.88
2022-08-24T17:17:22.116Z,99224.25
2022-08-24T17:19:53.184Z,99235.06
2022-08-24T17:22:22.224Z,99230.88
2022-08-24T17:24:50.455Z,99233.00
2022-08-24T17:27:18.835Z,99228.47
2022-08-24T17:29:46.486Z,99228.84
2022-08-24T17:32:13.142Z,99229.69
2022-08-24T17:34:44.349Z,99231.50
2022-08-24T17:37:11.288Z,99241.66
2022-08-24T17:39:37.988Z,99234.38
2022-08-24T17:42:16.510Z,99244.56
2022-08-24T17:44:52.043Z,99244.81
2022-08-24T17:47:19.905Z,99245.03
2022-08-24T17:49:46.894Z,99242.03
2022-08-24T17:52:14.888Z,99246.53
2022-08-24T17:54:41.365Z,99243.50
2022-08-24T17:57:11.814Z,99240.69
2022-08-24T17:59:38.545Z,99247.44
2022-08-24T18:02:07.492Z,99254.38
2022-08-24T18:04:35.722Z,99255.59
2022-08-24T18:07:09.611Z,99250.63
2022-08-24T18:09:48.481Z,99251.09
2022-08-24T18:12:17.687Z,99258.66
2022-08-24T18:14:44.592Z,99256.88
2022-08-24T18:17:20.099Z,99262.66
2022-08-24T18:19:50.696Z,99264.69
2022-08-24T18:22:17.154Z,99272.69
2022-08-24T18:24:44.970Z,99270.66
2022-08-24T18:27:24.042Z,99272.41
2022-08-24T18:29:58.420Z,99274.63
2022-08-24T18:32:30.957Z,99270.69
2022-08-24T18:34:59.379Z,99285.28
2022-08-24T18:37:25.777Z,99284.66
2022-08-24T18:39:52.241Z,99278.28
2022-08-24T18:42:19.181Z,99284.50
2022-08-24T18:44:45.623Z,99279.13
2022-08-24T18:47:12.046Z,99282.16
2022-08-24T18:49:40.489Z,99280.97
2022-08-24T18:52:11.058Z,99283.41
2022-08-24T18:54:41.876Z,99286.09
2022-08-24T18:57:09.639Z,99292.44
2022-08-24T18:59:41.011Z,99282.78
2022-08-24T19:02:35.449Z,99287.16
2022-08-24T19:05:13.219Z,99286.03
2022-08-24T19:07:44.506Z,99298.16
2022-08-24T19:10:18.271Z,99292.59
2022-08-24T19:12:48.334Z,99293.75
2022-08-24T19:15:32.264Z,99280.06
2022-08-24T19:18:05.549Z,99282.59
2022-08-24T19:20:33.433Z,99280.47
2022-08-24T19:23:07.528Z,99285.22
2022-08-24T19:25:36.165Z,99280.31
2022-08-24T19:28:04.282Z,99295.16
2022-08-24T19:30:34.703Z,99281.56
2022-08-24T19:33:02.455Z,99272.69
2022-08-24T19:35:31.802Z,99275.16
2022-08-24T19:37:58.443Z,99282.22
2022-08-24T19:40:25.000Z,99279.56
2022-08-24T19:42:53.656Z,99257.88
2022-08-24T19:45:43.198Z,99270.78
2022-08-24T19:48:11.418Z,99275.41
2022-08-24T19:50:40.722Z,99270.44
2022-08-24T19:53:07.406Z,99263.81
2022-08-24T19:55:35.565Z,99263.38
2022-08-24T19:58:09.715Z,99261.25
2022-08-24T20:00:51.553Z,99256.72
2022-08-24T20:03:18.689Z,99258.41
2022-08-24T20:05:45.781Z,99250.13
2022-08-24T20:08:13.037Z,99249.97
2022-08-24T20:10:41.277Z,99237.81
2022-08-24T20:13:07.984Z,99239.22
2022-08-24T20:15:39.349Z,99239.88
2022-08-24T20:18:08.959Z,99239.09
2022-08-24T20:20:35.955Z,99216.78
2022-08-24T20:23:06.109Z,99216.78
2022-08-24T20:25:39.187Z,99231.03
2022-08-24T20:28:28.343Z,99228.81
2022-08-24T20:30:56.983Z,99224.25
2022-08-24T20:33:25.388Z,99217.28
2022-08-24T20:35:51.859Z,99216.03
2022-08-24T20:38:21.206Z,99204.50
2022-08-24T20:40:47.803Z,99198.69
2022-08-24T20:43:14.594Z,99197.72
2022-08-24T20:45:45.600Z,99170.56
2022-08-24T20:48:13.849Z,99178.63
2022-08-24T20:50:44.507Z,99188.81
2022-08-24T20:53:14.382Z,99183.44
2022-08-24T20:55:41.844Z,99169.75
2022-08-24T20:58:14.047Z,99162.91
2022-08-24T21:00:44.517Z,99163.53
2022-08-24T21:03:12.649Z,99161.69
2022-08-24T21:05:39.453Z,99141.38
2022-08-24T21:08:05.936Z,99145.06
2022-08-24T21:10:32.971Z,99144.63
2022-08-24T21:13:00.226Z,99140.53
2022-08-24T21:15:27.025Z,99143.22
2022-08-24T21:17:53.884Z,99147.19
2022-08-24T21:20:21.895Z,99141.97
2022-08-24T21:22:50.091Z,99140.16
2022-08-24T21:25:17.504Z,99138.28
2022-08-24T21:27:46.414Z,99137.44
2022-08-24T21:30:17.026Z,99136.66
2022-08-24T21:33:02.319Z,99142.22
2022-08-24T21:35:28.826Z,99127.94
2022-08-24T21:37:55.237Z,99123.78
2022-08-24T21:40:22.097Z,99132.06
2022-08-24T21:42:49.376Z,99129.56
2022-08-24T21:45:15.796Z,99129.78
2022-08-24T21:47:42.249Z,99128.97
2022-08-24T21:50:09.807Z,99108.81
2022-08-24T21:52:36.213Z,99116.88
2022-08-24T21:55:03.404Z,99102.59
2022-08-24T21:57:30.160Z,99077.66
2022-08-24T21:59:56.552Z,99077.22
2022-08-24T22:02:23.143Z,99055.16
2022-08-24T22:04:56.126Z,99073.88
2022-08-24T22:07:24.175Z,99064.34
2022-08-24T22:09:50.878Z,99045.69
2022-08-24T22:12:17.421Z,99072.19
2022-08-24T22:14:43.837Z,99073.06
2022-08-24T22:17:10.560Z,99051.22
2022-08-24T22:19:36.965Z,99048.72
2022-08-24T22:22:03.891Z,99049.78
2022-08-24T22:24:30.331Z,99035.28
2022-08-24T22:26:56.909Z,99035.88
2022-08-24T22:29:23.532Z,99032.31
2022-08-24T22:31:50.299Z,99029.00
2022-08-24T22:34:20.763Z,99010.09
2022-08-24T22:36:48.527Z,98998.25
2022-08-24T22:39:15.062Z,98989.53
2022-08-24T22:41:41.495Z,98972.09
2022-08-24T22:44:20.068Z,98973.81
2022-08-24T22:46:56.074Z,98957.38
2022-08-24T22:49:25.692Z,98946.03
2022-08-24T22:51:52.179Z,98946.88
2022-08-24T22:54:21.093Z,98937.69
2022-08-24T22:56:50.186Z,98931.69
2022-08-24T22:59:19.395Z,98930.41
2022-08-24T23:01:50.272Z,98919.50
2022-08-24T23:04:21.721Z,98918.38
2022-08-24T23:06:48.889Z,98904.47
2022-08-24T23:09:16.229Z,98901.22
2022-08-24T23:11:43.116Z,98892.38
2022-08-24T23:14:12.360Z,98881.38
2022-08-24T23:16:41.340Z,98869.56
2022-08-24T23:19:26.867Z,98877.25
2022-08-24T23:21:58.104Z,98854.34
2022-08-24T23:24:24.507Z,98868.81
2022-08-24T23:26:51.298Z,98863.84
2022-08-24T23:29:18.369Z,98847.19
2022-08-24T23:31:47.567Z,98854.34
2022-08-24T23:34:17.641Z,98847.25
2022-08-24T23:36:44.242Z,98845.97
2022-08-24T23:39:12.154Z,98823.66
2022-08-24T23:41:46.199Z,98851.06
2022-08-24T23:44:26.234Z,98842.94
2022-08-24T23:46:53.820Z,98812.53
2022-08-24T23:49:22.584Z,98809.00
2022-08-24T23:51:50.973Z,98798.44
2022-08-24T23:54:22.082Z,98789.16
2022-08-24T23:56:49.481Z,98772.84
2022-08-24T23:59:19.360Z,98763.97
